sensor_id;sensor_type;location;lat;lon;timestamp;temperature;humidity
7234;DHT22;3658;47.992;10.158;2023-06-24T00:02:01;24.80;51.00
7234;DHT22;3658;47.992;10.158;2023-06-24T00:04:28;24.80;51.00
7234;DHT22;3658;47.992;10.158;2023-06-24T00:06:55;24.80;51.00
7234;DHT22;3658;47.992;10.158;2023-06-24T00:09:24;24.80;51.00
7234;DHT22;3658;47.992;10.158;2023-06-24T00:11:51;24.80;51.00
7234;DHT22;3658;47.992;10.158;2023-06-24T00:14:18;24.80;51.10
7234;DHT22;3658;47.992;10.158;2023-06-24T00:16:47;24.80;51.10
7234;DHT22;3658;47.992;10.158;2023-06-24T00:19:18;24.80;51.10
7234;DHT22;3658;47.992;10.158;2023-06-24T00:21:46;24.80;51.10
7234;DHT22;3658;47.992;10.158;2023-06-24T00:24:13;24.80;51.10
7234;DHT22;3658;47.992;10.158;2023-06-24T00:26:39;24.80;51.10
7234;DHT22;3658;47.992;10.158;2023-06-24T00:29:06;24.80;51.20
7234;DHT22;3658;47.992;10.158;2023-06-24T00:31:33;24.80;51.10
7234;DHT22;3658;47.992;10.158;2023-06-24T00:34:00;24.80;51.20
7234;DHT22;3658;47.992;10.158;2023-06-24T00:36:28;24.80;51.20
7234;DHT22;3658;47.992;10.158;2023-06-24T00:38:57;24.80;51.20
7234;DHT22;3658;47.992;10.158;2023-06-24T00:41:29;24.80;51.20
7234;DHT22;3658;47.992;10.158;2023-06-24T00:43:56;24.80;51.20
7234;DHT22;3658;47.992;10.158;2023-06-24T00:46:24;24.80;51.20
7234;DHT22;3658;47.992;10.158;2023-06-24T00:48:51;24.80;51.20
7234;DHT22;3658;47.992;10.158;2023-06-24T00:51:18;24.80;51.20
7234;DHT22;3658;47.992;10.158;2023-06-24T00:53:47;24.80;51.20
7234;DHT22;3658;47.992;10.158;2023-06-24T00:56:16;24.80;51.20
7234;DHT22;3658;47.992;10.158;2023-06-24T00:58:44;24.80;51.20
7234;DHT22;3658;47.992;10.158;2023-06-24T01:01:12;24.70;51.20
7234;DHT22;3658;47.992;10.158;2023-06-24T01:03:40;24.70;51.20
7234;DHT22;3658;47.992;10.158;2023-06-24T01:06:08;24.70;51.20
7234;DHT22;3658;47.992;10.158;2023-06-24T01:08:35;24.80;51.30
7234;DHT22;3658;47.992;10.158;2023-06-24T01:11:04;24.80;51.30
7234;DHT22;3658;47.992;10.158;2023-06-24T01:13:31;24.80;51.30
7234;DHT22;3658;47.992;10.158;2023-06-24T01:16:02;24.70;51.20
7234;DHT22;3658;47.992;10.158;2023-06-24T01:18:34;24.70;51.20
7234;DHT22;3658;47.992;10.158;2023-06-24T01:21:09;24.70;51.20
7234;DHT22;3658;47.992;10.158;2023-06-24T01:24:01;24.70;51.20
7234;DHT22;3658;47.992;10.158;2023-06-24T01:26:54;24.70;51.20
7234;DHT22;3658;47.992;10.158;2023-06-24T01:29:57;24.70;51.20
7234;DHT22;3658;47.992;10.158;2023-06-24T01:32:33;24.70;51.30
7234;DHT22;3658;47.992;10.158;2023-06-24T01:35:05;24.70;51.30
7234;DHT22;3658;47.992;10.158;2023-06-24T01:37:37;24.70;51.30
7234;DHT22;3658;47.992;10.158;2023-06-24T01:40:10;24.70;51.30
7234;DHT22;3658;47.992;10.158;2023-06-24T01:42:40;24.70;51.30
7234;DHT22;3658;47.992;10.158;2023-06-24T01:45:12;24.70;51.30
7234;DHT22;3658;47.992;10.158;2023-06-24T01:47:43;24.70;51.30
7234;DHT22;3658;47.992;10.158;2023-06-24T01:50:11;24.70;51.30
7234;DHT22;3658;47.992;10.158;2023-06-24T01:52:42;24.70;51.30
7234;DHT22;3658;47.992;10.158;2023-06-24T01:55:12;24.70;51.30
7234;DHT22;3658;47.992;10.158;2023-06-24T01:57:42;24.70;51.30
7234;DHT22;3658;47.992;10.158;2023-06-24T02:00:11;24.70;51.30
7234;DHT22;3658;47.992;10.158;2023-06-24T02:02:38;24.70;51.30
7234;DHT22;3658;47.992;10.158;2023-06-24T02:05:08;24.70;51.30
7234;DHT22;3658;47.992;10.158;2023-06-24T02:07:36;24.70;51.30
7234;DHT22;3658;47.992;10.158;2023-06-24T02:10:06;24.70;51.30
7234;DHT22;3658;47.992;10.158;2023-06-24T02:12:34;24.70;51.40
7234;DHT22;3658;47.992;10.158;2023-06-24T02:15:02;24.70;51.40
7234;DHT22;3658;47.992;10.158;2023-06-24T02:17:30;24.70;51.40
7234;DHT22;3658;47.992;10.158;2023-06-24T02:19:57;24.70;51.40
7234;DHT22;3658;47.992;10.158;2023-06-24T02:22:27;24.70;51.40
7234;DHT22;3658;47.992;10.158;2023-06-24T02:24:55;24.70;51.40
7234;DHT22;3658;47.992;10.158;2023-06-24T02:27:22;24.70;51.40
7234;DHT22;3658;47.992;10.158;2023-06-24T02:29:50;24.70;51.40
7234;DHT22;3658;47.992;10.158;2023-06-24T02:32:18;24.70;51.40
7234;DHT22;3658;47.992;10.158;2023-06-24T02:34:45;24.70;51.40
7234;DHT22;3658;47.992;10.158;2023-06-24T02:37:12;24.70;52.00
7234;DHT22;3658;47.992;10.158;2023-06-24T02:39:40;24.70;51.40
7234;DHT22;3658;47.992;10.158;2023-06-24T02:42:09;24.70;51.50
7234;DHT22;3658;47.992;10.158;2023-06-24T02:44:37;24.70;51.50
7234;DHT22;3658;47.992;10.158;2023-06-24T02:47:05;24.70;51.40
7234;DHT22;3658;47.992;10.158;2023-06-24T02:49:33;24.70;51.40
7234;DHT22;3658;47.992;10.158;2023-06-24T02:52:01;24.70;51.40
7234;DHT22;3658;47.992;10.158;2023-06-24T02:54:29;24.70;51.40
7234;DHT22;3658;47.992;10.158;2023-06-24T02:56:57;24.70;51.50
7234;DHT22;3658;47.992;10.158;2023-06-24T02:59:24;24.70;51.50
7234;DHT22;3658;47.992;10.158;2023-06-24T03:01:52;24.70;51.50
7234;DHT22;3658;47.992;10.158;2023-06-24T03:04:20;24.70;51.50
7234;DHT22;3658;47.992;10.158;2023-06-24T03:06:47;24.70;51.50
7234;DHT22;3658;47.992;10.158;2023-06-24T03:09:15;24.70;51.50
7234;DHT22;3658;47.992;10.158;2023-06-24T03:11:43;24.70;51.40
7234;DHT22;3658;47.992;10.158;2023-06-24T03:14:11;24.70;51.50
7234;DHT22;3658;47.992;10.158;2023-06-24T03:16:38;24.70;51.50
7234;DHT22;3658;47.992;10.158;2023-06-24T03:19:05;24.70;51.50
7234;DHT22;3658;47.992;10.158;2023-06-24T03:21:32;24.60;51.40
7234;DHT22;3658;47.992;10.158;2023-06-24T03:23:59;24.70;51.50
7234;DHT22;3658;47.992;10.158;2023-06-24T03:26:31;24.60;51.40
7234;DHT22;3658;47.992;10.158;2023-06-24T03:28:58;24.60;51.40
7234;DHT22;3658;47.992;10.158;2023-06-24T03:31:26;24.60;51.40
7234;DHT22;3658;47.992;10.158;2023-06-24T03:33:53;24.60;51.40
7234;DHT22;3658;47.992;10.158;2023-06-24T03:36:20;24.60;51.40
7234;DHT22;3658;47.992;10.158;2023-06-24T03:38:47;24.60;51.40
7234;DHT22;3658;47.992;10.158;2023-06-24T03:41:13;24.60;51.50
7234;DHT22;3658;47.992;10.158;2023-06-24T03:43:40;24.60;51.50
7234;DHT22;3658;47.992;10.158;2023-06-24T03:46:09;24.60;51.40
7234;DHT22;3658;47.992;10.158;2023-06-24T03:48:37;24.60;51.50
7234;DHT22;3658;47.992;10.158;2023-06-24T03:51:03;24.60;51.50
7234;DHT22;3658;47.992;10.158;2023-06-24T03:53:30;24.60;51.50
7234;DHT22;3658;47.992;10.158;2023-06-24T03:55:58;24.60;51.50
7234;DHT22;3658;47.992;10.158;2023-06-24T03:58:25;24.60;51.50
7234;DHT22;3658;47.992;10.158;2023-06-24T04:00:51;24.60;51.50
7234;DHT22;3658;47.992;10.158;2023-06-24T04:03:22;24.60;51.50
7234;DHT22;3658;47.992;10.158;2023-06-24T04:05:53;24.60;51.50
7234;DHT22;3658;47.992;10.158;2023-06-24T04:08:20;24.60;51.50
7234;DHT22;3658;47.992;10.158;2023-06-24T04:10:46;24.60;51.50
7234;DHT22;3658;47.992;10.158;2023-06-24T04:13:13;24.60;51.50
7234;DHT22;3658;47.992;10.158;2023-06-24T04:15:40;24.60;51.50
7234;DHT22;3658;47.992;10.158;2023-06-24T04:18:07;24.60;51.50
7234;DHT22;3658;47.992;10.158;2023-06-24T04:20:34;24.60;51.50
7234;DHT22;3658;47.992;10.158;2023-06-24T04:23:03;24.60;51.50
7234;DHT22;3658;47.992;10.158;2023-06-24T04:25:30;24.60;51.50
7234;DHT22;3658;47.992;10.158;2023-06-24T04:27:57;24.60;51.50
7234;DHT22;3658;47.992;10.158;2023-06-24T04:30:24;24.60;51.50
7234;DHT22;3658;47.992;10.158;2023-06-24T04:32:51;24.60;51.50
7234;DHT22;3658;47.992;10.158;2023-06-24T04:35:17;24.60;51.50
7234;DHT22;3658;47.992;10.158;2023-06-24T04:37:44;24.60;51.50
7234;DHT22;3658;47.992;10.158;2023-06-24T04:40:12;24.60;51.50
7234;DHT22;3658;47.992;10.158;2023-06-24T04:42:39;24.60;51.50
7234;DHT22;3658;47.992;10.158;2023-06-24T04:45:06;24.60;51.50
7234;DHT22;3658;47.992;10.158;2023-06-24T04:47:33;24.60;51.50
7234;DHT22;3658;47.992;10.158;2023-06-24T04:50:01;24.60;51.50
7234;DHT22;3658;47.992;10.158;2023-06-24T04:52:28;24.60;51.50
7234;DHT22;3658;47.992;10.158;2023-06-24T04:54:55;24.60;51.50
7234;DHT22;3658;47.992;10.158;2023-06-24T04:57:27;24.60;51.50
7234;DHT22;3658;47.992;10.158;2023-06-24T04:59:54;24.60;51.50
7234;DHT22;3658;47.992;10.158;2023-06-24T05:02:21;24.60;51.50
7234;DHT22;3658;47.992;10.158;2023-06-24T05:04:48;24.60;51.50
7234;DHT22;3658;47.992;10.158;2023-06-24T05:07:15;24.60;51.50
7234;DHT22;3658;47.992;10.158;2023-06-24T05:09:42;24.60;51.50
7234;DHT22;3658;47.992;10.158;2023-06-24T05:12:09;24.60;51.50
7234;DHT22;3658;47.992;10.158;2023-06-24T05:14:37;24.60;51.50
7234;DHT22;3658;47.992;10.158;2023-06-24T05:17:04;24.60;51.50
7234;DHT22;3658;47.992;10.158;2023-06-24T05:19:31;24.60;51.50
7234;DHT22;3658;47.992;10.158;2023-06-24T05:21:58;24.60;51.50
7234;DHT22;3658;47.992;10.158;2023-06-24T05:24:25;24.60;51.50
7234;DHT22;3658;47.992;10.158;2023-06-24T05:26:52;24.60;51.50
7234;DHT22;3658;47.992;10.158;2023-06-24T05:29:19;24.60;51.50
7234;DHT22;3658;47.992;10.158;2023-06-24T05:31:47;24.60;51.50
7234;DHT22;3658;47.992;10.158;2023-06-24T05:34:14;24.60;51.50
7234;DHT22;3658;47.992;10.158;2023-06-24T05:36:40;24.60;51.50
7234;DHT22;3658;47.992;10.158;2023-06-24T05:39:08;24.60;51.50
7234;DHT22;3658;47.992;10.158;2023-06-24T05:41:35;24.60;51.50
7234;DHT22;3658;47.992;10.158;2023-06-24T05:44:02;24.60;51.50
7234;DHT22;3658;47.992;10.158;2023-06-24T05:46:29;24.60;51.50
7234;DHT22;3658;47.992;10.158;2023-06-24T05:48:57;24.60;51.50
7234;DHT22;3658;47.992;10.158;2023-06-24T05:51:24;24.60;51.50
7234;DHT22;3658;47.992;10.158;2023-06-24T05:53:51;24.60;51.50
7234;DHT22;3658;47.992;10.158;2023-06-24T05:56:19;24.60;51.50
7234;DHT22;3658;47.992;10.158;2023-06-24T05:58:46;24.60;52.20
7234;DHT22;3658;47.992;10.158;2023-06-24T06:01:13;24.60;51.50
7234;DHT22;3658;47.992;10.158;2023-06-24T06:03:39;24.60;51.50
7234;DHT22;3658;47.992;10.158;2023-06-24T06:06:07;24.60;52.20
7234;DHT22;3658;47.992;10.158;2023-06-24T06:08:34;24.60;51.50
7234;DHT22;3658;47.992;10.158;2023-06-24T06:11:01;24.60;51.50
7234;DHT22;3658;47.992;10.158;2023-06-24T06:13:28;24.60;51.50
7234;DHT22;3658;47.992;10.158;2023-06-24T06:15:55;24.60;51.50
7234;DHT22;3658;47.992;10.158;2023-06-24T06:18:22;24.60;51.50
7234;DHT22;3658;47.992;10.158;2023-06-24T06:20:49;24.60;51.40
7234;DHT22;3658;47.992;10.158;2023-06-24T06:23:17;24.60;51.40
7234;DHT22;3658;47.992;10.158;2023-06-24T06:25:44;24.60;51.30
7234;DHT22;3658;47.992;10.158;2023-06-24T06:28:10;24.60;51.30
7234;DHT22;3658;47.992;10.158;2023-06-24T06:30:38;24.60;51.30
7234;DHT22;3658;47.992;10.158;2023-06-24T06:33:04;24.60;51.30
7234;DHT22;3658;47.992;10.158;2023-06-24T06:35:31;24.60;51.20
7234;DHT22;3658;47.992;10.158;2023-06-24T06:38:01;24.60;51.20
7234;DHT22;3658;47.992;10.158;2023-06-24T06:40:29;24.60;51.20
7234;DHT22;3658;47.992;10.158;2023-06-24T06:42:56;24.60;51.10
7234;DHT22;3658;47.992;10.158;2023-06-24T06:45:23;24.50;51.00
7234;DHT22;3658;47.992;10.158;2023-06-24T06:47:50;24.60;51.00
7234;DHT22;3658;47.992;10.158;2023-06-24T06:50:16;24.60;50.90
7234;DHT22;3658;47.992;10.158;2023-06-24T06:52:43;24.60;51.00
7234;DHT22;3658;47.992;10.158;2023-06-24T06:55:10;24.60;51.00
7234;DHT22;3658;47.992;10.158;2023-06-24T06:57:38;24.60;50.90
7234;DHT22;3658;47.992;10.158;2023-06-24T07:00:06;24.60;50.20
7234;DHT22;3658;47.992;10.158;2023-06-24T07:02:33;24.50;49.20
7234;DHT22;3658;47.992;10.158;2023-06-24T07:05:00;24.50;48.50
7234;DHT22;3658;47.992;10.158;2023-06-24T07:07:27;24.50;48.70
7234;DHT22;3658;47.992;10.158;2023-06-24T07:09:53;24.50;48.80
7234;DHT22;3658;47.992;10.158;2023-06-24T07:12:21;24.40;48.50
7234;DHT22;3658;47.992;10.158;2023-06-24T07:14:50;24.40;48.60
7234;DHT22;3658;47.992;10.158;2023-06-24T07:17:17;24.40;48.30
7234;DHT22;3658;47.992;10.158;2023-06-24T07:19:44;24.40;48.70
7234;DHT22;3658;47.992;10.158;2023-06-24T07:22:10;24.50;49.20
7234;DHT22;3658;47.992;10.158;2023-06-24T07:24:37;24.50;49.40
7234;DHT22;3658;47.992;10.158;2023-06-24T07:27:05;24.50;49.50
7234;DHT22;3658;47.992;10.158;2023-06-24T07:29:31;24.50;49.60
7234;DHT22;3658;47.992;10.158;2023-06-24T07:32:00;24.50;49.60
7234;DHT22;3658;47.992;10.158;2023-06-24T07:34:26;24.50;49.70
7234;DHT22;3658;47.992;10.158;2023-06-24T07:36:53;24.50;49.70
7234;DHT22;3658;47.992;10.158;2023-06-24T07:39:20;24.50;49.70
7234;DHT22;3658;47.992;10.158;2023-06-24T07:41:47;24.50;49.70
7234;DHT22;3658;47.992;10.158;2023-06-24T07:44:13;24.50;49.80
7234;DHT22;3658;47.992;10.158;2023-06-24T07:46:40;24.50;49.80
7234;DHT22;3658;47.992;10.158;2023-06-24T07:49:08;24.50;49.80
7234;DHT22;3658;47.992;10.158;2023-06-24T07:51:35;24.50;49.90
7234;DHT22;3658;47.992;10.158;2023-06-24T07:54:02;24.50;49.90
7234;DHT22;3658;47.992;10.158;2023-06-24T07:56:28;24.50;49.90
7234;DHT22;3658;47.992;10.158;2023-06-24T07:58:55;24.50;49.90
7234;DHT22;3658;47.992;10.158;2023-06-24T08:01:22;24.50;49.90
7234;DHT22;3658;47.992;10.158;2023-06-24T08:03:49;24.40;49.80
7234;DHT22;3658;47.992;10.158;2023-06-24T08:06:17;24.50;49.90
7234;DHT22;3658;47.992;10.158;2023-06-24T08:08:44;24.50;49.90
7234;DHT22;3658;47.992;10.158;2023-06-24T08:11:11;24.50;49.90
7234;DHT22;3658;47.992;10.158;2023-06-24T08:13:38;24.50;50.00
7234;DHT22;3658;47.992;10.158;2023-06-24T08:16:05;24.50;50.00
7234;DHT22;3658;47.992;10.158;2023-06-24T08:18:32;24.50;50.00
7234;DHT22;3658;47.992;10.158;2023-06-24T08:20:59;24.50;50.00
7234;DHT22;3658;47.992;10.158;2023-06-24T08:23:27;24.50;50.00
7234;DHT22;3658;47.992;10.158;2023-06-24T08:25:54;24.50;50.00
7234;DHT22;3658;47.992;10.158;2023-06-24T08:28:20;24.50;50.00
7234;DHT22;3658;47.992;10.158;2023-06-24T08:30:47;24.50;50.00
7234;DHT22;3658;47.992;10.158;2023-06-24T08:33:14;24.50;50.00
7234;DHT22;3658;47.992;10.158;2023-06-24T08:35:41;24.50;50.00
7234;DHT22;3658;47.992;10.158;2023-06-24T08:38:07;24.50;50.00
7234;DHT22;3658;47.992;10.158;2023-06-24T08:40:36;24.50;50.00
7234;DHT22;3658;47.992;10.158;2023-06-24T08:43:05;24.50;50.00
7234;DHT22;3658;47.992;10.158;2023-06-24T08:45:32;24.50;50.00
7234;DHT22;3658;47.992;10.158;2023-06-24T08:47:59;24.50;50.00
7234;DHT22;3658;47.992;10.158;2023-06-24T08:50:33;24.50;50.00
7234;DHT22;3658;47.992;10.158;2023-06-24T08:53:03;24.50;50.00
7234;DHT22;3658;47.992;10.158;2023-06-24T08:55:39;24.50;50.00
7234;DHT22;3658;47.992;10.158;2023-06-24T08:58:07;24.50;50.00
7234;DHT22;3658;47.992;10.158;2023-06-24T09:00:34;24.50;50.00
7234;DHT22;3658;47.992;10.158;2023-06-24T09:03:01;24.50;50.00
7234;DHT22;3658;47.992;10.158;2023-06-24T09:05:28;24.50;50.00
7234;DHT22;3658;47.992;10.158;2023-06-24T09:07:56;24.50;50.00
7234;DHT22;3658;47.992;10.158;2023-06-24T09:10:30;24.60;50.10
7234;DHT22;3658;47.992;10.158;2023-06-24T09:12:59;24.50;50.00
7234;DHT22;3658;47.992;10.158;2023-06-24T09:15:29;24.50;50.00
7234;DHT22;3658;47.992;10.158;2023-06-24T09:17:57;24.50;50.00
7234;DHT22;3658;47.992;10.158;2023-06-24T09:20:24;24.50;50.00
7234;DHT22;3658;47.992;10.158;2023-06-24T09:22:50;24.50;50.00
7234;DHT22;3658;47.992;10.158;2023-06-24T09:25:18;24.50;50.10
7234;DHT22;3658;47.992;10.158;2023-06-24T09:27:48;24.50;50.10
7234;DHT22;3658;47.992;10.158;2023-06-24T09:30:19;24.50;50.00
7234;DHT22;3658;47.992;10.158;2023-06-24T09:32:47;24.50;50.10
7234;DHT22;3658;47.992;10.158;2023-06-24T09:35:16;24.50;50.10
7234;DHT22;3658;47.992;10.158;2023-06-24T09:37:48;24.50;50.00
7234;DHT22;3658;47.992;10.158;2023-06-24T09:40:15;24.50;50.00
7234;DHT22;3658;47.992;10.158;2023-06-24T09:42:51;24.50;50.10
7234;DHT22;3658;47.992;10.158;2023-06-24T09:45:25;24.50;50.10
7234;DHT22;3658;47.992;10.158;2023-06-24T09:47:52;24.50;50.10
7234;DHT22;3658;47.992;10.158;2023-06-24T09:50:19;24.50;50.10
7234;DHT22;3658;47.992;10.158;2023-06-24T09:52:48;24.50;50.10
7234;DHT22;3658;47.992;10.158;2023-06-24T09:55:17;24.50;50.10
7234;DHT22;3658;47.992;10.158;2023-06-24T09:57:45;24.50;50.10
7234;DHT22;3658;47.992;10.158;2023-06-24T10:00:14;24.50;50.10
7234;DHT22;3658;47.992;10.158;2023-06-24T10:02:43;24.50;50.10
7234;DHT22;3658;47.992;10.158;2023-06-24T10:05:11;24.50;50.10
7234;DHT22;3658;47.992;10.158;2023-06-24T10:07:39;24.50;50.10
7234;DHT22;3658;47.992;10.158;2023-06-24T10:10:07;24.50;50.10
7234;DHT22;3658;47.992;10.158;2023-06-24T10:12:35;24.50;50.10
7234;DHT22;3658;47.992;10.158;2023-06-24T10:15:02;24.50;50.10
7234;DHT22;3658;47.992;10.158;2023-06-24T10:17:30;24.50;50.10
7234;DHT22;3658;47.992;10.158;2023-06-24T10:19:58;24.50;50.10
7234;DHT22;3658;47.992;10.158;2023-06-24T10:22:30;24.50;50.10
7234;DHT22;3658;47.992;10.158;2023-06-24T10:25:00;24.50;50.10
7234;DHT22;3658;47.992;10.158;2023-06-24T10:27:27;24.50;50.10
7234;DHT22;3658;47.992;10.158;2023-06-24T10:30:02;24.50;50.20
7234;DHT22;3658;47.992;10.158;2023-06-24T10:32:39;24.50;50.20
7234;DHT22;3658;47.992;10.158;2023-06-24T10:35:21;24.50;50.10
7234;DHT22;3658;47.992;10.158;2023-06-24T10:37:54;24.50;50.10
7234;DHT22;3658;47.992;10.158;2023-06-24T10:40:34;24.50;50.10
7234;DHT22;3658;47.992;10.158;2023-06-24T10:43:02;24.50;50.10
7234;DHT22;3658;47.992;10.158;2023-06-24T10:45:29;24.40;50.30
7234;DHT22;3658;47.992;10.158;2023-06-24T10:47:56;24.40;50.00
7234;DHT22;3658;47.992;10.158;2023-06-24T10:50:26;24.40;50.10
7234;DHT22;3658;47.992;10.158;2023-06-24T10:52:53;24.40;50.10
7234;DHT22;3658;47.992;10.158;2023-06-24T10:55:22;24.40;50.00
7234;DHT22;3658;47.992;10.158;2023-06-24T10:57:50;24.40;50.10
7234;DHT22;3658;47.992;10.158;2023-06-24T11:00:17;24.40;50.10
7234;DHT22;3658;47.992;10.158;2023-06-24T11:02:44;24.50;50.20
7234;DHT22;3658;47.992;10.158;2023-06-24T11:05:11;24.40;50.00
7234;DHT22;3658;47.992;10.158;2023-06-24T11:07:39;24.50;50.10
7234;DHT22;3658;47.992;10.158;2023-06-24T11:10:07;24.50;50.20
7234;DHT22;3658;47.992;10.158;2023-06-24T11:12:35;24.50;50.10
7234;DHT22;3658;47.992;10.158;2023-06-24T11:15:03;24.50;50.20
7234;DHT22;3658;47.992;10.158;2023-06-24T11:17:31;24.50;50.10
7234;DHT22;3658;47.992;10.158;2023-06-24T11:19:59;24.50;50.10
7234;DHT22;3658;47.992;10.158;2023-06-24T11:22:26;24.50;50.10
7234;DHT22;3658;47.992;10.158;2023-06-24T11:24:54;24.50;50.10
7234;DHT22;3658;47.992;10.158;2023-06-24T11:27:26;24.50;50.20
7234;DHT22;3658;47.992;10.158;2023-06-24T11:29:53;24.50;50.20
7234;DHT22;3658;47.992;10.158;2023-06-24T11:32:20;24.50;50.10
7234;DHT22;3658;47.992;10.158;2023-06-24T11:34:47;24.50;50.20
7234;DHT22;3658;47.992;10.158;2023-06-24T11:37:16;24.40;50.10
7234;DHT22;3658;47.992;10.158;2023-06-24T11:39:44;24.40;50.10
7234;DHT22;3658;47.992;10.158;2023-06-24T11:42:13;24.50;50.20
7234;DHT22;3658;47.992;10.158;2023-06-24T11:44:43;24.40;50.10
7234;DHT22;3658;47.992;10.158;2023-06-24T11:47:10;24.40;50.10
7234;DHT22;3658;47.992;10.158;2023-06-24T11:49:50;24.50;50.20
7234;DHT22;3658;47.992;10.158;2023-06-24T11:52:18;24.40;50.10
7234;DHT22;3658;47.992;10.158;2023-06-24T11:54:45;24.40;50.10
7234;DHT22;3658;47.992;10.158;2023-06-24T11:57:13;24.40;50.10
7234;DHT22;3658;47.992;10.158;2023-06-24T11:59:42;24.40;50.10
7234;DHT22;3658;47.992;10.158;2023-06-24T12:02:13;24.40;50.10
7234;DHT22;3658;47.992;10.158;2023-06-24T12:04:43;24.40;50.10
7234;DHT22;3658;47.992;10.158;2023-06-24T12:07:10;24.40;50.10
7234;DHT22;3658;47.992;10.158;2023-06-24T12:09:37;24.40;50.10
7234;DHT22;3658;47.992;10.158;2023-06-24T12:12:05;24.40;50.10
7234;DHT22;3658;47.992;10.158;2023-06-24T12:14:34;24.40;50.10
7234;DHT22;3658;47.992;10.158;2023-06-24T12:17:01;24.40;50.10
7234;DHT22;3658;47.992;10.158;2023-06-24T12:19:28;24.40;50.10
7234;DHT22;3658;47.992;10.158;2023-06-24T12:21:54;24.40;50.10
7234;DHT22;3658;47.992;10.158;2023-06-24T12:24:22;24.40;50.10
7234;DHT22;3658;47.992;10.158;2023-06-24T12:26:48;24.40;50.10
7234;DHT22;3658;47.992;10.158;2023-06-24T12:29:16;24.40;50.10
7234;DHT22;3658;47.992;10.158;2023-06-24T12:31:45;24.40;50.10
7234;DHT22;3658;47.992;10.158;2023-06-24T12:34:11;24.40;50.10
7234;DHT22;3658;47.992;10.158;2023-06-24T12:36:38;24.40;50.10
7234;DHT22;3658;47.992;10.158;2023-06-24T12:39:06;24.40;50.10
7234;DHT22;3658;47.992;10.158;2023-06-24T12:41:33;24.40;50.10
7234;DHT22;3658;47.992;10.158;2023-06-24T12:43:59;24.40;50.70
7234;DHT22;3658;47.992;10.158;2023-06-24T12:46:26;24.40;50.10
7234;DHT22;3658;47.992;10.158;2023-06-24T12:48:54;24.40;50.20
7234;DHT22;3658;47.992;10.158;2023-06-24T12:51:22;24.40;50.20
7234;DHT22;3658;47.992;10.158;2023-06-24T12:53:49;24.40;50.20
7234;DHT22;3658;47.992;10.158;2023-06-24T12:56:15;24.40;50.20
7234;DHT22;3658;47.992;10.158;2023-06-24T12:58:42;24.40;50.10
7234;DHT22;3658;47.992;10.158;2023-06-24T13:01:09;24.40;50.20
7234;DHT22;3658;47.992;10.158;2023-06-24T13:03:36;24.40;50.20
7234;DHT22;3658;47.992;10.158;2023-06-24T13:06:04;24.40;50.20
7234;DHT22;3658;47.992;10.158;2023-06-24T13:08:31;24.40;50.20
7234;DHT22;3658;47.992;10.158;2023-06-24T13:10:58;24.40;50.20
7234;DHT22;3658;47.992;10.158;2023-06-24T13:13:24;24.40;50.20
7234;DHT22;3658;47.992;10.158;2023-06-24T13:15:51;24.40;50.20
7234;DHT22;3658;47.992;10.158;2023-06-24T13:18:18;24.40;50.20
7234;DHT22;3658;47.992;10.158;2023-06-24T13:20:45;24.40;50.20
7234;DHT22;3658;47.992;10.158;2023-06-24T13:23:13;24.40;50.20
7234;DHT22;3658;47.992;10.158;2023-06-24T13:25:40;24.40;50.20
7234;DHT22;3658;47.992;10.158;2023-06-24T13:28:06;24.40;50.20
7234;DHT22;3658;47.992;10.158;2023-06-24T13:30:33;24.40;50.20
7234;DHT22;3658;47.992;10.158;2023-06-24T13:33:00;24.40;50.20
7234;DHT22;3658;47.992;10.158;2023-06-24T13:35:27;24.40;50.20
7234;DHT22;3658;47.992;10.158;2023-06-24T13:37:54;24.40;50.20
7234;DHT22;3658;47.992;10.158;2023-06-24T13:40:22;24.40;50.20
7234;DHT22;3658;47.992;10.158;2023-06-24T13:42:50;24.40;50.20
7234;DHT22;3658;47.992;10.158;2023-06-24T13:45:16;24.40;50.20
7234;DHT22;3658;47.992;10.158;2023-06-24T13:47:43;24.40;50.20
7234;DHT22;3658;47.992;10.158;2023-06-24T13:50:10;24.40;50.20
7234;DHT22;3658;47.992;10.158;2023-06-24T13:52:37;24.40;50.20
7234;DHT22;3658;47.992;10.158;2023-06-24T13:55:05;24.40;50.20
7234;DHT22;3658;47.992;10.158;2023-06-24T13:57:33;24.40;50.20
7234;DHT22;3658;47.992;10.158;2023-06-24T14:00:00;24.40;50.20
7234;DHT22;3658;47.992;10.158;2023-06-24T14:02:27;24.40;50.20
7234;DHT22;3658;47.992;10.158;2023-06-24T14:04:54;24.40;50.20
7234;DHT22;3658;47.992;10.158;2023-06-24T14:07:21;24.40;50.20
7234;DHT22;3658;47.992;10.158;2023-06-24T14:09:47;24.40;50.20
7234;DHT22;3658;47.992;10.158;2023-06-24T14:12:14;24.40;50.20
7234;DHT22;3658;47.992;10.158;2023-06-24T14:14:42;24.40;50.20
7234;DHT22;3658;47.992;10.158;2023-06-24T14:17:09;24.40;50.20
7234;DHT22;3658;47.992;10.158;2023-06-24T14:19:38;24.40;50.20
7234;DHT22;3658;47.992;10.158;2023-06-24T14:22:07;24.40;50.20
7234;DHT22;3658;47.992;10.158;2023-06-24T14:24:35;24.40;50.20
7234;DHT22;3658;47.992;10.158;2023-06-24T14:27:03;24.40;50.20
7234;DHT22;3658;47.992;10.158;2023-06-24T14:29:30;24.40;50.20
7234;DHT22;3658;47.992;10.158;2023-06-24T14:31:58;24.40;50.20
7234;DHT22;3658;47.992;10.158;2023-06-24T14:34:25;24.40;50.20
7234;DHT22;3658;47.992;10.158;2023-06-24T14:36:55;24.40;50.20
7234;DHT22;3658;47.992;10.158;2023-06-24T14:39:22;24.40;50.20
7234;DHT22;3658;47.992;10.158;2023-06-24T14:41:48;24.40;50.20
7234;DHT22;3658;47.992;10.158;2023-06-24T14:44:15;24.40;50.20
7234;DHT22;3658;47.992;10.158;2023-06-24T14:46:42;24.40;50.20
7234;DHT22;3658;47.992;10.158;2023-06-24T14:49:10;24.40;50.20
7234;DHT22;3658;47.992;10.158;2023-06-24T14:51:37;24.40;50.20
7234;DHT22;3658;47.992;10.158;2023-06-24T14:54:04;24.40;50.20
7234;DHT22;3658;47.992;10.158;2023-06-24T14:56:30;24.40;50.20
7234;DHT22;3658;47.992;10.158;2023-06-24T14:58:57;24.40;50.20
7234;DHT22;3658;47.992;10.158;2023-06-24T15:01:24;24.40;50.20
7234;DHT22;3658;47.992;10.158;2023-06-24T15:03:51;24.40;50.20
7234;DHT22;3658;47.992;10.158;2023-06-24T15:06:19;24.40;50.20
7234;DHT22;3658;47.992;10.158;2023-06-24T15:08:46;24.40;50.20
7234;DHT22;3658;47.992;10.158;2023-06-24T15:11:13;24.40;50.20
7234;DHT22;3658;47.992;10.158;2023-06-24T15:13:39;24.40;50.20
7234;DHT22;3658;47.992;10.158;2023-06-24T15:16:06;24.40;50.20
7234;DHT22;3658;47.992;10.158;2023-06-24T15:18:33;24.40;50.20
7234;DHT22;3658;47.992;10.158;2023-06-24T15:21:00;24.40;50.30
7234;DHT22;3658;47.992;10.158;2023-06-24T15:23:28;24.40;50.20
7234;DHT22;3658;47.992;10.158;2023-06-24T15:25:54;24.40;50.20
7234;DHT22;3658;47.992;10.158;2023-06-24T15:28:21;24.40;50.20
7234;DHT22;3658;47.992;10.158;2023-06-24T15:30:48;24.40;50.20
7234;DHT22;3658;47.992;10.158;2023-06-24T15:33:15;24.40;50.20
7234;DHT22;3658;47.992;10.158;2023-06-24T15:35:41;24.40;50.20
7234;DHT22;3658;47.992;10.158;2023-06-24T15:38:08;24.40;50.20
7234;DHT22;3658;47.992;10.158;2023-06-24T15:40:39;24.40;50.20
7234;DHT22;3658;47.992;10.158;2023-06-24T15:43:06;24.40;50.20
7234;DHT22;3658;47.992;10.158;2023-06-24T15:45:33;24.40;50.20
7234;DHT22;3658;47.992;10.158;2023-06-24T15:48:00;24.40;50.20
7234;DHT22;3658;47.992;10.158;2023-06-24T15:50:26;24.40;50.20